Terminal Aerodrome Forecast
Issued by NWS

Home | Current Version | Previous Version | Text Only | Print | Product List | Glossary Off
Versions: 1 2 3 4 5 6 7 8 9 10 11 12 13 14 15 16 17 18

000
FTUS43 KABR 201900 AAA
TAFATY
TAF AMD
KATY 201953Z 2020/2118 25018G28KT P6SM TS BKN060CB BKN100
     FM202030 25018G28KT P6SM VCSH BKN100
     FM202200 32018G28KT P6SM BKN100
     FM210100 32012KT P6SM SKC=

USA.gov is the U.S. government's official web portal to all federal, state and local government web resources and services.